sensor_id;sensor_type;location;lat;lon;timestamp;temperature;humidity
63435;DHT22;68814;50.872;5.306;2023-09-19T00:00:23;15.30;99.90
63435;DHT22;68814;50.872;5.306;2023-09-19T00:02:55;15.30;99.90
63435;DHT22;68814;50.872;5.306;2023-09-19T00:05:25;15.30;99.90
63435;DHT22;68814;50.872;5.306;2023-09-19T00:07:54;15.30;99.90
63435;DHT22;68814;50.872;5.306;2023-09-19T00:10:27;15.30;99.90
63435;DHT22;68814;50.872;5.306;2023-09-19T00:12:57;15.20;99.90
63435;DHT22;68814;50.872;5.306;2023-09-19T00:15:24;15.20;99.90
63435;DHT22;68814;50.872;5.306;2023-09-19T00:17:51;15.20;99.90
63435;DHT22;68814;50.872;5.306;2023-09-19T00:20:20;15.20;99.90
63435;DHT22;68814;50.872;5.306;2023-09-19T00:22:51;15.20;99.90
63435;DHT22;68814;50.872;5.306;2023-09-19T00:25:17;15.20;99.90
63435;DHT22;68814;50.872;5.306;2023-09-19T00:27:43;15.20;99.90
63435;DHT22;68814;50.872;5.306;2023-09-19T00:30:11;15.20;99.90
63435;DHT22;68814;50.872;5.306;2023-09-19T00:32:41;15.20;99.90
63435;DHT22;68814;50.872;5.306;2023-09-19T00:35:08;15.20;99.90
63435;DHT22;68814;50.872;5.306;2023-09-19T00:37:37;15.20;99.90
63435;DHT22;68814;50.872;5.306;2023-09-19T00:40:06;15.20;99.90
63435;DHT22;68814;50.872;5.306;2023-09-19T00:42:32;15.20;99.90
63435;DHT22;68814;50.872;5.306;2023-09-19T00:44:59;15.20;99.90
63435;DHT22;68814;50.872;5.306;2023-09-19T00:47:28;15.20;99.90
63435;DHT22;68814;50.872;5.306;2023-09-19T00:49:55;15.20;99.90
63435;DHT22;68814;50.872;5.306;2023-09-19T00:52:21;15.20;99.90
63435;DHT22;68814;50.872;5.306;2023-09-19T00:54:49;15.20;99.90
63435;DHT22;68814;50.872;5.306;2023-09-19T00:57:16;15.20;99.90
63435;DHT22;68814;50.872;5.306;2023-09-19T00:59:45;15.20;99.90
63435;DHT22;68814;50.872;5.306;2023-09-19T01:02:14;15.20;99.90
63435;DHT22;68814;50.872;5.306;2023-09-19T01:04:40;15.20;99.90
63435;DHT22;68814;50.872;5.306;2023-09-19T01:07:07;15.20;99.90
63435;DHT22;68814;50.872;5.306;2023-09-19T01:09:34;15.20;99.90
63435;DHT22;68814;50.872;5.306;2023-09-19T01:12:02;15.10;99.90
63435;DHT22;68814;50.872;5.306;2023-09-19T01:14:42;15.10;99.90
63435;DHT22;68814;50.872;5.306;2023-09-19T01:23:10;15.10;99.90
63435;DHT22;68814;50.872;5.306;2023-09-19T01:30:57;15.10;99.90
63435;DHT22;68814;50.872;5.306;2023-09-19T01:33:26;15.10;99.90
63435;DHT22;68814;50.872;5.306;2023-09-19T01:35:52;15.10;99.90
63435;DHT22;68814;50.872;5.306;2023-09-19T01:38:23;15.10;99.90
63435;DHT22;68814;50.872;5.306;2023-09-19T01:41:02;15.10;99.90
63435;DHT22;68814;50.872;5.306;2023-09-19T01:43:38;15.00;99.90
63435;DHT22;68814;50.872;5.306;2023-09-19T01:46:16;15.00;99.90
63435;DHT22;68814;50.872;5.306;2023-09-19T01:52:14;15.00;99.90
63435;DHT22;68814;50.872;5.306;2023-09-19T01:55:09;15.00;99.90
63435;DHT22;68814;50.872;5.306;2023-09-19T01:57:47;15.00;99.90
63435;DHT22;68814;50.872;5.306;2023-09-19T02:00:16;15.00;99.90
63435;DHT22;68814;50.872;5.306;2023-09-19T02:02:47;14.90;99.90
63435;DHT22;68814;50.872;5.306;2023-09-19T02:05:13;14.90;99.90
63435;DHT22;68814;50.872;5.306;2023-09-19T02:07:39;14.90;99.90
63435;DHT22;68814;50.872;5.306;2023-09-19T02:10:06;14.90;99.90
63435;DHT22;68814;50.872;5.306;2023-09-19T02:12:33;14.90;99.90
63435;DHT22;68814;50.872;5.306;2023-09-19T02:14:58;14.90;99.90
63435;DHT22;68814;50.872;5.306;2023-09-19T02:17:25;14.90;99.90
63435;DHT22;68814;50.872;5.306;2023-09-19T02:19:54;14.80;99.90
63435;DHT22;68814;50.872;5.306;2023-09-19T02:22:24;14.80;99.90
63435;DHT22;68814;50.872;5.306;2023-09-19T02:24:50;14.80;99.90
63435;DHT22;68814;50.872;5.306;2023-09-19T02:27:16;14.80;99.90
63435;DHT22;68814;50.872;5.306;2023-09-19T02:29:43;14.80;99.90
63435;DHT22;68814;50.872;5.306;2023-09-19T02:32:08;14.70;99.90
63435;DHT22;68814;50.872;5.306;2023-09-19T02:34:37;14.70;99.90
63435;DHT22;68814;50.872;5.306;2023-09-19T02:37:07;14.70;99.90
63435;DHT22;68814;50.872;5.306;2023-09-19T02:39:34;14.70;99.90
63435;DHT22;68814;50.872;5.306;2023-09-19T02:42:00;14.60;99.90
63435;DHT22;68814;50.872;5.306;2023-09-19T02:44:26;14.70;99.90
63435;DHT22;68814;50.872;5.306;2023-09-19T02:46:52;14.60;99.90
63435;DHT22;68814;50.872;5.306;2023-09-19T02:49:18;14.60;99.90
63435;DHT22;68814;50.872;5.306;2023-09-19T02:51:44;14.60;99.90
63435;DHT22;68814;50.872;5.306;2023-09-19T02:54:10;14.60;99.90
63435;DHT22;68814;50.872;5.306;2023-09-19T02:56:36;14.60;99.90
63435;DHT22;68814;50.872;5.306;2023-09-19T02:59:02;14.60;99.90
63435;DHT22;68814;50.872;5.306;2023-09-19T03:01:28;14.50;99.90
63435;DHT22;68814;50.872;5.306;2023-09-19T03:03:54;14.50;99.90
63435;DHT22;68814;50.872;5.306;2023-09-19T03:06:20;14.50;99.90
63435;DHT22;68814;50.872;5.306;2023-09-19T03:08:47;14.50;99.90
63435;DHT22;68814;50.872;5.306;2023-09-19T03:11:14;14.50;99.90
63435;DHT22;68814;50.872;5.306;2023-09-19T03:13:41;14.50;99.90
63435;DHT22;68814;50.872;5.306;2023-09-19T03:16:08;14.50;99.90
63435;DHT22;68814;50.872;5.306;2023-09-19T03:18:34;14.50;99.90
63435;DHT22;68814;50.872;5.306;2023-09-19T03:21:00;14.40;99.90
63435;DHT22;68814;50.872;5.306;2023-09-19T03:23:26;14.50;99.90
63435;DHT22;68814;50.872;5.306;2023-09-19T03:25:53;14.50;99.90
63435;DHT22;68814;50.872;5.306;2023-09-19T03:28:19;14.50;99.90
63435;DHT22;68814;50.872;5.306;2023-09-19T03:30:46;14.40;99.90
63435;DHT22;68814;50.872;5.306;2023-09-19T03:33:12;14.40;99.90
63435;DHT22;68814;50.872;5.306;2023-09-19T03:35:39;14.40;99.90
63435;DHT22;68814;50.872;5.306;2023-09-19T03:38:05;14.40;99.90
63435;DHT22;68814;50.872;5.306;2023-09-19T03:40:30;14.40;99.90
63435;DHT22;68814;50.872;5.306;2023-09-19T03:42:56;14.40;99.90
63435;DHT22;68814;50.872;5.306;2023-09-19T03:45:25;14.40;99.90
63435;DHT22;68814;50.872;5.306;2023-09-19T03:47:51;14.40;99.90
63435;DHT22;68814;50.872;5.306;2023-09-19T03:50:16;14.40;99.90
63435;DHT22;68814;50.872;5.306;2023-09-19T03:52:45;14.40;99.90
63435;DHT22;68814;50.872;5.306;2023-09-19T03:55:11;14.50;99.90
63435;DHT22;68814;50.872;5.306;2023-09-19T03:57:37;14.50;99.90
63435;DHT22;68814;50.872;5.306;2023-09-19T04:00:04;14.50;99.90
63435;DHT22;68814;50.872;5.306;2023-09-19T04:02:38;14.50;99.90
63435;DHT22;68814;50.872;5.306;2023-09-19T04:05:04;14.60;99.90
63435;DHT22;68814;50.872;5.306;2023-09-19T04:07:29;14.60;99.90
63435;DHT22;68814;50.872;5.306;2023-09-19T04:09:55;14.60;99.80
63435;DHT22;68814;50.872;5.306;2023-09-19T04:12:21;14.70;99.90
63435;DHT22;68814;50.872;5.306;2023-09-19T04:14:46;14.70;99.70
63435;DHT22;68814;50.872;5.306;2023-09-19T04:17:12;14.70;99.70
63435;DHT22;68814;50.872;5.306;2023-09-19T04:19:38;14.70;99.70
63435;DHT22;68814;50.872;5.306;2023-09-19T04:22:03;14.70;99.70
63435;DHT22;68814;50.872;5.306;2023-09-19T04:24:29;14.70;99.90
63435;DHT22;68814;50.872;5.306;2023-09-19T04:26:57;14.70;99.90
63435;DHT22;68814;50.872;5.306;2023-09-19T04:29:24;14.70;99.90
63435;DHT22;68814;50.872;5.306;2023-09-19T04:31:52;14.70;99.90
63435;DHT22;68814;50.872;5.306;2023-09-19T04:34:17;14.70;99.90
63435;DHT22;68814;50.872;5.306;2023-09-19T04:36:43;14.60;99.90
63435;DHT22;68814;50.872;5.306;2023-09-19T04:39:09;14.60;99.90
63435;DHT22;68814;50.872;5.306;2023-09-19T04:41:38;14.60;99.90
63435;DHT22;68814;50.872;5.306;2023-09-19T04:44:06;14.60;99.90
63435;DHT22;68814;50.872;5.306;2023-09-19T04:46:33;14.60;99.90
63435;DHT22;68814;50.872;5.306;2023-09-19T04:48:58;14.60;99.90
63435;DHT22;68814;50.872;5.306;2023-09-19T04:51:24;14.60;99.90
63435;DHT22;68814;50.872;5.306;2023-09-19T04:53:52;14.50;99.90
63435;DHT22;68814;50.872;5.306;2023-09-19T04:56:17;14.50;99.90
63435;DHT22;68814;50.872;5.306;2023-09-19T04:58:44;14.40;99.90
63435;DHT22;68814;50.872;5.306;2023-09-19T05:01:10;14.40;99.90
63435;DHT22;68814;50.872;5.306;2023-09-19T05:03:37;14.30;99.90
63435;DHT22;68814;50.872;5.306;2023-09-19T05:06:03;14.30;99.90
63435;DHT22;68814;50.872;5.306;2023-09-19T05:08:30;14.30;99.90
63435;DHT22;68814;50.872;5.306;2023-09-19T05:10:56;14.20;99.90
63435;DHT22;68814;50.872;5.306;2023-09-19T05:13:22;14.20;99.90
63435;DHT22;68814;50.872;5.306;2023-09-19T05:15:49;14.20;99.90
63435;DHT22;68814;50.872;5.306;2023-09-19T05:18:18;14.20;99.90
63435;DHT22;68814;50.872;5.306;2023-09-19T05:20:43;14.10;99.90
63435;DHT22;68814;50.872;5.306;2023-09-19T05:23:09;14.10;99.90
63435;DHT22;68814;50.872;5.306;2023-09-19T05:25:37;14.10;99.90
63435;DHT22;68814;50.872;5.306;2023-09-19T05:28:05;14.10;99.90
63435;DHT22;68814;50.872;5.306;2023-09-19T05:30:33;14.10;99.90
63435;DHT22;68814;50.872;5.306;2023-09-19T05:33:02;14.20;99.90
63435;DHT22;68814;50.872;5.306;2023-09-19T05:35:28;14.10;99.90
63435;DHT22;68814;50.872;5.306;2023-09-19T05:37:54;14.10;99.90
63435;DHT22;68814;50.872;5.306;2023-09-19T05:40:20;14.10;99.90
63435;DHT22;68814;50.872;5.306;2023-09-19T05:42:47;14.10;99.90
63435;DHT22;68814;50.872;5.306;2023-09-19T05:45:13;14.20;99.90
63435;DHT22;68814;50.872;5.306;2023-09-19T05:47:40;14.10;99.90
63435;DHT22;68814;50.872;5.306;2023-09-19T05:50:09;14.20;99.90
63435;DHT22;68814;50.872;5.306;2023-09-19T05:52:39;14.10;99.90
63435;DHT22;68814;50.872;5.306;2023-09-19T05:55:05;14.20;99.90
63435;DHT22;68814;50.872;5.306;2023-09-19T05:57:34;14.20;99.90
63435;DHT22;68814;50.872;5.306;2023-09-19T06:00:06;14.20;99.90
63435;DHT22;68814;50.872;5.306;2023-09-19T06:02:43;14.20;99.90
63435;DHT22;68814;50.872;5.306;2023-09-19T06:05:10;14.20;99.90
63435;DHT22;68814;50.872;5.306;2023-09-19T06:07:37;14.20;99.90
63435;DHT22;68814;50.872;5.306;2023-09-19T06:10:06;14.30;99.90
63435;DHT22;68814;50.872;5.306;2023-09-19T06:12:33;14.20;99.90
63435;DHT22;68814;50.872;5.306;2023-09-19T06:15:04;14.30;99.90
63435;DHT22;68814;50.872;5.306;2023-09-19T06:17:34;14.30;99.90
63435;DHT22;68814;50.872;5.306;2023-09-19T06:20:05;14.30;99.90
63435;DHT22;68814;50.872;5.306;2023-09-19T06:22:38;14.30;99.90
63435;DHT22;68814;50.872;5.306;2023-09-19T06:25:08;14.40;99.90
63435;DHT22;68814;50.872;5.306;2023-09-19T06:27:37;14.40;99.90
63435;DHT22;68814;50.872;5.306;2023-09-19T06:30:02;14.40;99.90
63435;DHT22;68814;50.872;5.306;2023-09-19T06:32:28;14.40;99.90
63435;DHT22;68814;50.872;5.306;2023-09-19T06:34:54;14.50;99.90
63435;DHT22;68814;50.872;5.306;2023-09-19T06:37:21;14.50;99.90
63435;DHT22;68814;50.872;5.306;2023-09-19T06:39:47;14.50;99.90
63435;DHT22;68814;50.872;5.306;2023-09-19T06:42:15;14.60;99.90
63435;DHT22;68814;50.872;5.306;2023-09-19T06:44:42;14.60;99.90
63435;DHT22;68814;50.872;5.306;2023-09-19T06:47:08;14.60;99.90
63435;DHT22;68814;50.872;5.306;2023-09-19T06:49:35;14.60;99.90
63435;DHT22;68814;50.872;5.306;2023-09-19T06:52:01;14.70;99.90
63435;DHT22;68814;50.872;5.306;2023-09-19T06:54:28;14.70;99.90
63435;DHT22;68814;50.872;5.306;2023-09-19T06:56:57;14.80;99.90
63435;DHT22;68814;50.872;5.306;2023-09-19T06:59:24;14.80;99.90
63435;DHT22;68814;50.872;5.306;2023-09-19T07:01:50;14.90;99.90
63435;DHT22;68814;50.872;5.306;2023-09-19T07:04:16;14.90;99.90
63435;DHT22;68814;50.872;5.306;2023-09-19T07:06:49;15.00;99.90
63435;DHT22;68814;50.872;5.306;2023-09-19T07:09:15;15.00;99.90
63435;DHT22;68814;50.872;5.306;2023-09-19T07:11:41;15.10;99.90
63435;DHT22;68814;50.872;5.306;2023-09-19T07:14:06;15.10;99.90
63435;DHT22;68814;50.872;5.306;2023-09-19T07:16:32;15.20;99.90
63435;DHT22;68814;50.872;5.306;2023-09-19T07:18:58;15.30;99.90
63435;DHT22;68814;50.872;5.306;2023-09-19T07:21:24;15.30;99.90
63435;DHT22;68814;50.872;5.306;2023-09-19T07:23:49;15.40;99.90
63435;DHT22;68814;50.872;5.306;2023-09-19T07:26:16;15.40;99.60
63435;DHT22;68814;50.872;5.306;2023-09-19T07:28:42;15.40;99.30
63435;DHT22;68814;50.872;5.306;2023-09-19T07:31:07;15.40;99.50
63435;DHT22;68814;50.872;5.306;2023-09-19T07:33:35;15.50;99.60
63435;DHT22;68814;50.872;5.306;2023-09-19T07:36:01;15.50;99.10
63435;DHT22;68814;50.872;5.306;2023-09-19T07:38:27;15.50;99.10
63435;DHT22;68814;50.872;5.306;2023-09-19T07:40:53;15.60;99.50
63435;DHT22;68814;50.872;5.306;2023-09-19T07:43:19;15.60;99.10
63435;DHT22;68814;50.872;5.306;2023-09-19T07:45:44;15.70;98.60
63435;DHT22;68814;50.872;5.306;2023-09-19T07:48:10;15.70;98.60
63435;DHT22;68814;50.872;5.306;2023-09-19T07:50:40;15.70;98.50
63435;DHT22;68814;50.872;5.306;2023-09-19T07:53:08;15.80;98.50
63435;DHT22;68814;50.872;5.306;2023-09-19T07:55:34;15.80;98.80
63435;DHT22;68814;50.872;5.306;2023-09-19T07:58:00;15.90;98.40
63435;DHT22;68814;50.872;5.306;2023-09-19T08:00:26;15.90;98.40
63435;DHT22;68814;50.872;5.306;2023-09-19T08:02:51;16.00;97.80
63435;DHT22;68814;50.872;5.306;2023-09-19T08:05:17;16.00;98.00
63435;DHT22;68814;50.872;5.306;2023-09-19T08:07:46;16.10;97.90
63435;DHT22;68814;50.872;5.306;2023-09-19T08:10:15;16.10;98.20
63435;DHT22;68814;50.872;5.306;2023-09-19T08:12:42;16.20;98.30
63435;DHT22;68814;50.872;5.306;2023-09-19T08:15:20;16.30;97.60
63435;DHT22;68814;50.872;5.306;2023-09-19T08:17:47;16.30;97.70
63435;DHT22;68814;50.872;5.306;2023-09-19T08:20:13;16.40;97.40
63435;DHT22;68814;50.872;5.306;2023-09-19T08:22:52;16.40;97.30
63435;DHT22;68814;50.872;5.306;2023-09-19T08:25:20;16.50;97.60
63435;DHT22;68814;50.872;5.306;2023-09-19T08:27:47;16.50;97.00
63435;DHT22;68814;50.872;5.306;2023-09-19T08:30:21;16.50;97.30
63435;DHT22;68814;50.872;5.306;2023-09-19T08:33:10;16.60;96.70
63435;DHT22;68814;50.872;5.306;2023-09-19T08:35:36;16.70;96.50
63435;DHT22;68814;50.872;5.306;2023-09-19T08:38:03;16.70;96.40
63435;DHT22;68814;50.872;5.306;2023-09-19T08:40:32;16.80;96.10
63435;DHT22;68814;50.872;5.306;2023-09-19T08:43:01;16.90;96.10
63435;DHT22;68814;50.872;5.306;2023-09-19T08:45:27;17.00;96.80
63435;DHT22;68814;50.872;5.306;2023-09-19T08:50:36;17.10;95.80
63435;DHT22;68814;50.872;5.306;2023-09-19T08:53:11;17.20;95.00
63435;DHT22;68814;50.872;5.306;2023-09-19T08:55:40;17.20;95.00
63435;DHT22;68814;50.872;5.306;2023-09-19T08:58:10;17.20;95.40
63435;DHT22;68814;50.872;5.306;2023-09-19T09:00:37;17.30;94.80
63435;DHT22;68814;50.872;5.306;2023-09-19T09:03:09;17.30;95.00
63435;DHT22;68814;50.872;5.306;2023-09-19T09:05:36;17.30;94.40
63435;DHT22;68814;50.872;5.306;2023-09-19T09:08:02;17.40;93.70
63435;DHT22;68814;50.872;5.306;2023-09-19T09:10:31;17.50;94.20
63435;DHT22;68814;50.872;5.306;2023-09-19T09:12:58;17.60;94.30
63435;DHT22;68814;50.872;5.306;2023-09-19T09:15:24;17.60;93.50
63435;DHT22;68814;50.872;5.306;2023-09-19T09:17:51;17.60;93.50
63435;DHT22;68814;50.872;5.306;2023-09-19T09:20:19;17.60;92.90
63435;DHT22;68814;50.872;5.306;2023-09-19T09:22:52;17.70;93.30
63435;DHT22;68814;50.872;5.306;2023-09-19T09:25:19;17.80;93.40
63435;DHT22;68814;50.872;5.306;2023-09-19T09:28:01;17.80;93.00
63435;DHT22;68814;50.872;5.306;2023-09-19T09:30:34;17.90;92.80
63435;DHT22;68814;50.872;5.306;2023-09-19T09:33:14;17.90;92.20
63435;DHT22;68814;50.872;5.306;2023-09-19T09:35:53;17.90;91.50
63435;DHT22;68814;50.872;5.306;2023-09-19T09:38:23;17.90;91.50
63435;DHT22;68814;50.872;5.306;2023-09-19T09:40:53;18.00;92.30
63435;DHT22;68814;50.872;5.306;2023-09-19T09:43:36;18.10;92.20
63435;DHT22;68814;50.872;5.306;2023-09-19T09:48:56;18.20;91.80
63435;DHT22;68814;50.872;5.306;2023-09-19T09:54:16;18.30;91.30
63435;DHT22;68814;50.872;5.306;2023-09-19T09:56:56;18.30;91.10
63435;DHT22;68814;50.872;5.306;2023-09-19T09:59:56;18.30;91.60
63435;DHT22;68814;50.872;5.306;2023-09-19T10:02:37;18.30;91.20
63435;DHT22;68814;50.872;5.306;2023-09-19T10:08:11;18.50;91.40
63435;DHT22;68814;50.872;5.306;2023-09-19T10:10:40;18.50;90.50
63435;DHT22;68814;50.872;5.306;2023-09-19T10:13:07;18.60;91.50
63435;DHT22;68814;50.872;5.306;2023-09-19T10:15:33;18.60;90.60
63435;DHT22;68814;50.872;5.306;2023-09-19T10:18:05;18.70;91.10
63435;DHT22;68814;50.872;5.306;2023-09-19T10:20:33;18.70;90.20
63435;DHT22;68814;50.872;5.306;2023-09-19T10:23:09;18.70;90.00
63435;DHT22;68814;50.872;5.306;2023-09-19T10:33:35;18.90;88.20
63435;DHT22;68814;50.872;5.306;2023-09-19T10:36:05;18.80;88.60
63435;DHT22;68814;50.872;5.306;2023-09-19T10:38:31;18.90;88.50
63435;DHT22;68814;50.872;5.306;2023-09-19T10:40:59;18.90;90.40
63435;DHT22;68814;50.872;5.306;2023-09-19T10:43:29;18.90;88.90
63435;DHT22;68814;50.872;5.306;2023-09-19T10:46:00;18.80;89.60
63435;DHT22;68814;50.872;5.306;2023-09-19T10:48:26;18.90;88.70
63435;DHT22;68814;50.872;5.306;2023-09-19T10:53:41;19.10;90.20
63435;DHT22;68814;50.872;5.306;2023-09-19T10:56:09;19.10;90.40
63435;DHT22;68814;50.872;5.306;2023-09-19T10:58:43;19.30;87.20
63435;DHT22;68814;50.872;5.306;2023-09-19T11:01:12;19.40;86.90
63435;DHT22;68814;50.872;5.306;2023-09-19T11:03:40;19.50;86.80
63435;DHT22;68814;50.872;5.306;2023-09-19T11:06:17;19.60;85.90
63435;DHT22;68814;50.872;5.306;2023-09-19T11:09:02;19.60;87.50
63435;DHT22;68814;50.872;5.306;2023-09-19T11:30:34;20.20;85.10
63435;DHT22;68814;50.872;5.306;2023-09-19T11:36:14;20.40;83.60
63435;DHT22;68814;50.872;5.306;2023-09-19T11:49:08;20.60;82.20
63435;DHT22;68814;50.872;5.306;2023-09-19T11:51:42;20.70;83.10
63435;DHT22;68814;50.872;5.306;2023-09-19T11:54:11;20.70;82.70
63435;DHT22;68814;50.872;5.306;2023-09-19T11:56:57;20.70;81.50
63435;DHT22;68814;50.872;5.306;2023-09-19T11:59:25;20.60;83.10
63435;DHT22;68814;50.872;5.306;2023-09-19T12:01:55;20.60;81.30
63435;DHT22;68814;50.872;5.306;2023-09-19T12:04:43;20.80;81.90
63435;DHT22;68814;50.872;5.306;2023-09-19T12:07:15;20.90;80.90
63435;DHT22;68814;50.872;5.306;2023-09-19T12:09:45;20.90;81.30
63435;DHT22;68814;50.872;5.306;2023-09-19T12:12:20;21.00;80.20
63435;DHT22;68814;50.872;5.306;2023-09-19T12:14:50;20.90;80.30
63435;DHT22;68814;50.872;5.306;2023-09-19T12:17:16;21.00;80.20
63435;DHT22;68814;50.872;5.306;2023-09-19T12:19:55;21.00;80.90
63435;DHT22;68814;50.872;5.306;2023-09-19T12:22:20;20.90;79.40
63435;DHT22;68814;50.872;5.306;2023-09-19T12:24:47;20.90;78.70
63435;DHT22;68814;50.872;5.306;2023-09-19T12:27:14;21.00;79.50
63435;DHT22;68814;50.872;5.306;2023-09-19T12:29:46;21.10;79.70
63435;DHT22;68814;50.872;5.306;2023-09-19T12:32:14;21.10;78.90
63435;DHT22;68814;50.872;5.306;2023-09-19T12:34:42;21.00;79.30
63435;DHT22;68814;50.872;5.306;2023-09-19T12:37:10;21.10;79.10
63435;DHT22;68814;50.872;5.306;2023-09-19T12:39:49;21.10;78.50
63435;DHT22;68814;50.872;5.306;2023-09-19T12:42:19;21.00;78.30
63435;DHT22;68814;50.872;5.306;2023-09-19T12:44:47;21.00;78.60
63435;DHT22;68814;50.872;5.306;2023-09-19T12:47:18;20.90;78.60
63435;DHT22;68814;50.872;5.306;2023-09-19T12:50:11;20.80;78.90
63435;DHT22;68814;50.872;5.306;2023-09-19T12:52:51;20.70;79.40
63435;DHT22;68814;50.872;5.306;2023-09-19T12:55:30;20.70;81.10
63435;DHT22;68814;50.872;5.306;2023-09-19T12:58:12;20.60;79.70
63435;DHT22;68814;50.872;5.306;2023-09-19T13:00:40;20.60;81.10
63435;DHT22;68814;50.872;5.306;2023-09-19T13:03:14;20.60;81.20
63435;DHT22;68814;50.872;5.306;2023-09-19T13:05:58;20.50;81.40
63435;DHT22;68814;50.872;5.306;2023-09-19T13:08:27;20.40;80.80
63435;DHT22;68814;50.872;5.306;2023-09-19T13:11:17;20.40;82.70
63435;DHT22;68814;50.872;5.306;2023-09-19T13:13:47;20.40;81.70
63435;DHT22;68814;50.872;5.306;2023-09-19T13:16:21;20.40;82.30
63435;DHT22;68814;50.872;5.306;2023-09-19T13:18:52;20.30;82.30
63435;DHT22;68814;50.872;5.306;2023-09-19T13:21:48;20.30;81.60
63435;DHT22;68814;50.872;5.306;2023-09-19T13:24:31;20.20;81.80
63435;DHT22;68814;50.872;5.306;2023-09-19T13:26:58;20.10;81.70
63435;DHT22;68814;50.872;5.306;2023-09-19T13:29:25;20.10;83.00
63435;DHT22;68814;50.872;5.306;2023-09-19T13:31:52;20.00;83.20
63435;DHT22;68814;50.872;5.306;2023-09-19T13:34:21;20.10;84.40
63435;DHT22;68814;50.872;5.306;2023-09-19T13:36:47;20.20;82.80
63435;DHT22;68814;50.872;5.306;2023-09-19T13:39:16;20.30;83.00
63435;DHT22;68814;50.872;5.306;2023-09-19T13:41:47;20.40;84.10
63435;DHT22;68814;50.872;5.306;2023-09-19T13:44:13;20.50;83.00
63435;DHT22;68814;50.872;5.306;2023-09-19T13:46:39;20.50;83.20
63435;DHT22;68814;50.872;5.306;2023-09-19T13:49:06;20.60;82.80
63435;DHT22;68814;50.872;5.306;2023-09-19T13:51:32;20.70;82.70
63435;DHT22;68814;50.872;5.306;2023-09-19T13:53:58;20.90;81.30
63435;DHT22;68814;50.872;5.306;2023-09-19T13:56:25;21.00;81.90
63435;DHT22;68814;50.872;5.306;2023-09-19T13:58:56;21.20;81.10
63435;DHT22;68814;50.872;5.306;2023-09-19T14:01:22;21.40;79.80
63435;DHT22;68814;50.872;5.306;2023-09-19T14:03:49;21.30;78.90
63435;DHT22;68814;50.872;5.306;2023-09-19T14:06:33;21.30;79.70
63435;DHT22;68814;50.872;5.306;2023-09-19T14:08:59;21.20;80.00
63435;DHT22;68814;50.872;5.306;2023-09-19T14:11:26;21.10;80.30
63435;DHT22;68814;50.872;5.306;2023-09-19T14:13:52;20.90;81.10
63435;DHT22;68814;50.872;5.306;2023-09-19T14:16:17;20.80;82.60
63435;DHT22;68814;50.872;5.306;2023-09-19T14:18:45;20.70;81.80
63435;DHT22;68814;50.872;5.306;2023-09-19T14:21:11;20.70;82.00
63435;DHT22;68814;50.872;5.306;2023-09-19T14:23:37;20.60;82.10
63435;DHT22;68814;50.872;5.306;2023-09-19T14:26:04;20.50;82.50
63435;DHT22;68814;50.872;5.306;2023-09-19T14:28:31;20.40;83.70
63435;DHT22;68814;50.872;5.306;2023-09-19T14:31:04;20.30;82.70
63435;DHT22;68814;50.872;5.306;2023-09-19T14:33:31;20.20;83.60
63435;DHT22;68814;50.872;5.306;2023-09-19T14:35:57;20.10;84.60
63435;DHT22;68814;50.872;5.306;2023-09-19T14:38:22;20.10;85.20
63435;DHT22;68814;50.872;5.306;2023-09-19T14:40:48;20.00;84.60
63435;DHT22;68814;50.872;5.306;2023-09-19T14:43:15;20.00;84.90
63435;DHT22;68814;50.872;5.306;2023-09-19T14:45:41;20.00;85.30
63435;DHT22;68814;50.872;5.306;2023-09-19T14:48:07;20.00;85.20
63435;DHT22;68814;50.872;5.306;2023-09-19T14:50:32;20.00;85.60
63435;DHT22;68814;50.872;5.306;2023-09-19T14:52:58;20.00;85.70
63435;DHT22;68814;50.872;5.306;2023-09-19T14:55:27;19.90;85.30
63435;DHT22;68814;50.872;5.306;2023-09-19T14:57:54;20.00;86.30
63435;DHT22;68814;50.872;5.306;2023-09-19T15:00:22;20.00;86.20
63435;DHT22;68814;50.872;5.306;2023-09-19T15:02:49;20.10;85.60
63435;DHT22;68814;50.872;5.306;2023-09-19T15:05:16;20.10;86.40
63435;DHT22;68814;50.872;5.306;2023-09-19T15:07:42;20.10;86.40
63435;DHT22;68814;50.872;5.306;2023-09-19T15:10:07;20.10;85.10
63435;DHT22;68814;50.872;5.306;2023-09-19T15:12:36;20.10;85.60
63435;DHT22;68814;50.872;5.306;2023-09-19T15:15:06;20.10;85.30
63435;DHT22;68814;50.872;5.306;2023-09-19T15:17:36;20.00;85.80
63435;DHT22;68814;50.872;5.306;2023-09-19T15:20:02;20.00;85.20
63435;DHT22;68814;50.872;5.306;2023-09-19T15:22:28;20.00;85.20
63435;DHT22;68814;50.872;5.306;2023-09-19T15:24:54;19.90;85.90
63435;DHT22;68814;50.872;5.306;2023-09-19T15:27:24;19.90;84.90
63435;DHT22;68814;50.872;5.306;2023-09-19T15:29:49;19.90;85.10
63435;DHT22;68814;50.872;5.306;2023-09-19T15:32:15;19.90;86.30
63435;DHT22;68814;50.872;5.306;2023-09-19T15:34:41;20.00;86.40
63435;DHT22;68814;50.872;5.306;2023-09-19T15:37:06;20.00;85.40
63435;DHT22;68814;50.872;5.306;2023-09-19T15:39:32;20.00;84.90
63435;DHT22;68814;50.872;5.306;2023-09-19T15:42:04;20.10;85.10
63435;DHT22;68814;50.872;5.306;2023-09-19T15:44:30;20.10;86.90
63435;DHT22;68814;50.872;5.306;2023-09-19T15:46:56;20.20;86.50
63435;DHT22;68814;50.872;5.306;2023-09-19T15:49:22;20.20;85.70
63435;DHT22;68814;50.872;5.306;2023-09-19T15:51:48;20.20;84.40
63435;DHT22;68814;50.872;5.306;2023-09-19T15:54:14;20.00;83.90
63435;DHT22;68814;50.872;5.306;2023-09-19T15:56:44;19.90;84.80
63435;DHT22;68814;50.872;5.306;2023-09-19T15:59:11;19.80;85.00
63435;DHT22;68814;50.872;5.306;2023-09-19T16:01:41;19.70;85.40
63435;DHT22;68814;50.872;5.306;2023-09-19T16:04:11;19.70;86.50
63435;DHT22;68814;50.872;5.306;2023-09-19T16:06:42;19.70;86.60
63435;DHT22;68814;50.872;5.306;2023-09-19T16:09:10;19.60;87.50
63435;DHT22;68814;50.872;5.306;2023-09-19T16:11:36;19.60;88.10
63435;DHT22;68814;50.872;5.306;2023-09-19T16:14:11;19.50;87.50
63435;DHT22;68814;50.872;5.306;2023-09-19T16:16:40;19.50;87.20
63435;DHT22;68814;50.872;5.306;2023-09-19T16:19:06;19.40;88.30
63435;DHT22;68814;50.872;5.306;2023-09-19T16:21:37;19.30;89.00
63435;DHT22;68814;50.872;5.306;2023-09-19T16:24:05;19.30;87.80
63435;DHT22;68814;50.872;5.306;2023-09-19T16:26:32;19.20;88.30
63435;DHT22;68814;50.872;5.306;2023-09-19T16:28:58;19.20;89.00
63435;DHT22;68814;50.872;5.306;2023-09-19T16:31:28;19.20;88.80
63435;DHT22;68814;50.872;5.306;2023-09-19T16:33:54;19.10;89.20
63435;DHT22;68814;50.872;5.306;2023-09-19T16:36:20;19.10;89.50
63435;DHT22;68814;50.872;5.306;2023-09-19T16:38:47;19.00;89.50
63435;DHT22;68814;50.872;5.306;2023-09-19T16:41:13;19.00;89.30
63435;DHT22;68814;50.872;5.306;2023-09-19T16:43:40;19.00;90.00
63435;DHT22;68814;50.872;5.306;2023-09-19T16:46:08;19.00;90.10
63435;DHT22;68814;50.872;5.306;2023-09-19T16:48:40;18.90;90.20